Time;durP1;ratioP1;P1;durP2;ratioP2;P2;SDS_P1;SDS_P2;PMS_P1;PMS_P2;Temp;Humidity;BMP_temperature;BMP_pressure;BME280_temperature;BME280_humidity;BME280_pressure;Samples;Min_cycle;Max_cycle;Signal;HPM_P1;HPM_P2
2023/07/02 00:01:37;;;;;;;7.22;6.50;;;;;;;-145.63;48.78;38687.91;5084843;28;20317;-68
2023/07/02 00:04:03;;;;;;;7.55;6.90;;;;;;;-145.63;49.09;38699.63;5066527;28;20045;-68
2023/07/02 00:06:28;;;;;;;9.68;7.22;;;;;;;-145.63;49.29;38662.47;5076674;28;20099;-68
2023/07/02 00:08:54;;;;;;;7.95;7.05;;;;;;;-145.63;49.35;38682.03;5075582;28;20048;-69
2023/07/02 00:11:19;;;;;;;7.75;6.47;;;;;;;-145.63;49.23;38656.59;5068200;28;20232;-69
2023/07/02 00:13:45;;;;;;;7.38;6.68;;;;;;;-145.63;48.97;38676.16;5084456;28;20020;-68
2023/07/02 00:16:10;;;;;;;7.65;6.70;;;;;;;-145.63;49.41;38668.34;5065335;28;20031;-69
2023/07/02 00:18:36;;;;;;;7.38;6.68;;;;;;;-145.63;49.38;38680.06;5078387;28;20099;-68
2023/07/02 00:21:04;;;;;;;12.68;7.57;;;;;;;-145.63;49.32;38668.34;5074669;28;20025;-69
2023/07/02 00:23:30;;;;;;;8.60;6.65;;;;;;;-145.63;49.51;38719.19;5069009;28;20028;-69
2023/07/02 00:25:59;;;;;;;9.63;6.75;;;;;;;-145.63;49.66;38783.72;5065833;28;20380;-67
2023/07/02 00:28:24;;;;;;;7.35;6.65;;;;;;;-145.63;49.70;38707.44;5084071;28;20210;-68
2023/07/02 00:30:50;;;;;;;8.43;7.10;;;;;;;-145.63;50.02;38715.28;5067961;28;20029;-68
2023/07/02 00:33:16;;;;;;;11.88;7.35;;;;;;;-145.63;50.11;38668.34;5075190;28;20025;-67
2023/07/02 00:35:41;;;;;;;9.18;7.35;;;;;;;-145.63;50.32;38766.13;5077591;28;20032;-68
2023/07/02 00:38:07;;;;;;;9.40;7.68;;;;;;;-145.63;50.47;38664.44;5065599;28;20352;-67
2023/07/02 00:40:33;;;;;;;8.40;6.75;;;;;;;-145.63;50.13;38721.13;5076548;28;20189;-68
2023/07/02 00:42:58;;;;;;;8.05;7.15;;;;;;;-145.63;50.28;38703.53;5080500;28;20313;-68
2023/07/02 00:45:26;;;;;;;7.43;6.72;;;;;;;-145.63;50.51;38760.25;5071487;28;20036;-66
2023/07/02 00:47:54;;;;;;;8.32;7.63;;;;;;;-145.63;50.47;38719.19;5071384;28;20028;-68
2023/07/02 00:50:22;;;;;;;7.95;6.90;;;;;;;-145.63;50.67;38631.19;5080766;28;20092;-69
2023/07/02 00:52:48;;;;;;;7.82;7.03;;;;;;;-145.63;50.73;38711.38;5063830;28;20368;-66
2023/07/02 00:55:13;;;;;;;8.60;6.82;;;;;;;-145.63;50.55;38762.22;5082323;28;20017;-68
2023/07/02 00:57:40;;;;;;;9.32;7.05;;;;;;;-145.63;50.69;38740.69;5069494;28;20025;-67
2023/07/02 01:00:07;;;;;;;7.63;6.75;;;;;;;-145.63;51.29;38766.13;5073037;28;20322;-68
2023/07/02 01:02:33;;;;;;;8.48;6.90;;;;;;;-145.63;51.41;38727.00;5078621;28;20225;-68
2023/07/02 01:04:59;;;;;;;8.73;7.90;;;;;;;-145.63;51.06;38748.50;5063518;28;20021;-68
2023/07/02 01:07:25;;;;;;;9.77;6.75;;;;;;;-145.63;51.06;38770.03;5082209;28;20262;-68
2023/07/02 01:09:51;;;;;;;10.65;7.30;;;;;;;-145.63;51.13;38758.28;5067604;28;20036;-67
2023/07/02 01:12:18;;;;;;;13.43;7.43;;;;;;;-145.63;51.38;38744.59;5074439;28;20032;-67
2023/07/02 01:14:56;;;;;;;7.95;7.15;;;;;;;-145.63;51.81;38830.66;5075649;28;20025;-68
2023/07/02 01:17:23;;;;;;;8.20;7.50;;;;;;;-145.63;51.68;38766.13;5065500;28;20323;-67
2023/07/02 01:19:51;;;;;;;8.02;7.18;;;;;;;-145.63;51.83;38779.81;5082461;28;20042;-67
2023/07/02 01:22:25;;;;;;;8.20;7.40;;;;;;;-145.63;51.93;38787.63;5062826;28;20215;-68
2023/07/02 01:24:51;;;;;;;9.50;7.28;;;;;;;-145.63;52.13;38777.84;5062907;28;20092;-68
2023/07/02 01:27:17;;;;;;;9.75;7.68;;;;;;;-145.63;51.77;38770.03;5073911;28;20035;-67
2023/07/02 01:29:46;;;;;;;8.45;7.47;;;;;;;-145.63;51.89;38811.09;5077006;28;20039;-68
2023/07/02 01:32:13;;;;;;;8.10;7.30;;;;;;;-145.63;52.22;38809.13;5065104;28;20032;-67
2023/07/02 01:34:38;;;;;;;9.30;7.30;;;;;;;-145.63;52.27;38807.19;5083090;28;20084;-68
2023/07/02 01:37:04;;;;;;;10.27;7.68;;;;;;;-145.63;52.02;38805.22;5065600;28;20194;-68
2023/07/02 01:39:30;;;;;;;11.02;9.07;;;;;;;-145.63;52.27;38785.66;5075506;28;20047;-68
2023/07/02 01:42:09;;;;;;;10.13;8.65;;;;;;;-145.63;52.50;38799.34;5072238;28;20309;-68
2023/07/02 01:44:35;;;;;;;13.73;10.63;;;;;;;-145.63;52.52;38816.97;5077077;28;20090;-68
2023/07/02 01:47:01;;;;;;;15.45;13.85;;;;;;;-145.63;52.58;38805.22;5061842;28;20025;-68
2023/07/02 01:49:26;;;;;;;15.27;13.35;;;;;;;-145.63;52.71;38766.13;5081931;28;20062;-69
2023/07/02 01:51:52;;;;;;;14.35;12.70;;;;;;;-145.63;52.61;38795.44;5067333;28;20210;-67
2023/07/02 01:54:19;;;;;;;13.40;12.05;;;;;;;-145.63;52.63;38791.53;5072520;28;20024;-68
2023/07/02 01:56:44;;;;;;;9.75;8.73;;;;;;;-145.63;52.34;38816.97;5076720;28;20033;-67
2023/07/02 01:59:11;;;;;;;10.90;8.77;;;;;;;-145.63;52.64;38803.28;5063439;28;20040;-68
2023/07/02 02:01:40;;;;;;;10.30;8.23;;;;;;;-145.63;52.67;38799.34;5066713;28;20044;-68
2023/07/02 02:04:09;;;;;;;8.73;7.82;;;;;;;-145.63;52.88;38764.16;5065527;28;20025;-68
2023/07/02 02:06:37;;;;;;;8.32;7.60;;;;;;;-145.63;52.63;38799.34;5067797;28;20028;-68
2023/07/02 02:09:04;;;;;;;9.73;7.65;;;;;;;-145.63;52.76;38779.81;5062482;28;20060;-69
2023/07/02 02:11:34;;;;;;;13.68;8.07;;;;;;;-145.63;52.97;38795.44;5066815;28;20052;-68
2023/07/02 02:14:02;;;;;;;8.80;7.40;;;;;;;-145.63;52.71;38805.22;5081363;28;20221;-69
2023/07/02 02:16:29;;;;;;;8.05;7.20;;;;;;;-145.63;52.64;38789.59;5041704;28;20306;-69
2023/07/02 02:18:54;;;;;;;7.28;6.50;;;;;;;-145.63;52.68;38783.72;5073608;28;20040;-69
2023/07/02 02:21:21;;;;;;;10.65;6.90;;;;;;;-145.63;52.35;38785.66;5071629;28;20028;-69
2023/07/02 02:23:47;;;;;;;9.88;7.78;;;;;;;-145.63;52.54;38615.53;5068715;28;20024;-69
2023/07/02 02:26:13;;;;;;;8.98;7.40;;;;;;;-145.63;52.28;38781.75;5062783;28;20021;-69
2023/07/02 02:28:38;;;;;;;7.82;7.03;;;;;;;-145.63;52.25;38766.13;5062678;28;20238;-69
2023/07/02 02:31:04;;;;;;;7.80;6.90;;;;;;;-145.63;52.35;38781.75;5080075;28;20017;-68
2023/07/02 02:33:30;;;;;;;9.95;7.35;;;;;;;-145.63;52.14;38758.28;5074086;28;20037;-67
2023/07/02 02:35:56;;;;;;;8.30;7.43;;;;;;;-145.63;52.37;38760.25;5066123;28;20420;-66
2023/07/02 02:38:21;;;;;;;7.75;7.05;;;;;;;-145.63;52.35;38770.03;5068693;28;20033;-67
2023/07/02 02:40:47;;;;;;;8.35;6.40;;;;;;;-145.63;52.40;38824.78;5077015;28;20029;-68
2023/07/02 02:43:12;;;;;;;11.15;7.28;;;;;;;-145.63;52.30;38770.03;5083787;28;20032;-68
2023/07/02 02:45:39;;;;;;;9.27;6.60;;;;;;;-145.63;52.14;38768.06;5073250;28;20025;-67
2023/07/02 02:48:05;;;;;;;9.38;7.13;;;;;;;-145.63;52.56;38779.81;5056632;28;20028;-68
2023/07/02 02:50:30;;;;;;;10.05;7.18;;;;;;;-145.63;52.33;38754.38;5082232;28;20048;-67
2023/07/02 02:52:56;;;;;;;8.23;6.72;;;;;;;-145.63;52.06;38746.56;5065944;28;20310;-70
2023/07/02 02:55:21;;;;;;;11.85;6.85;;;;;;;-145.63;51.83;38758.28;5084749;28;20321;-69
2023/07/02 02:57:47;;;;;;;7.72;6.90;;;;;;;-145.63;52.08;38758.28;5071729;28;20052;-69
2023/07/02 03:00:13;;;;;;;10.13;7.38;;;;;;;-145.63;52.67;38762.22;5075318;28;20024;-67
2023/07/02 03:02:39;;;;;;;6.80;6.05;;;;;;;-145.63;52.09;38766.13;5081026;28;20214;-69
2023/07/02 03:05:06;;;;;;;8.93;7.25;;;;;;;-145.63;52.79;38789.59;5064487;28;20293;-68
2023/07/02 03:07:32;;;;;;;9.43;7.13;;;;;;;-145.63;52.17;38770.03;5046001;28;20068;-69
2023/07/02 03:09:58;;;;;;;7.50;6.78;;;;;;;-145.63;51.96;38744.59;5077036;28;20082;-69
2023/07/02 03:12:25;;;;;;;7.78;7.00;;;;;;;-145.63;51.91;37952.72;5075072;28;20225;-68
2023/07/02 03:14:54;;;;;;;7.95;7.20;;;;;;;-145.63;52.22;38740.69;5071824;28;20032;-69
2023/07/02 03:17:20;;;;;;;11.43;6.68;;;;;;;-145.63;51.85;38709.41;5083662;28;20035;-69
2023/07/02 03:19:46;;;;;;;7.95;6.97;;;;;;;-145.63;52.04;38668.34;5065651;28;20028;-70
2023/07/02 03:22:12;;;;;;;10.70;6.43;;;;;;;-145.63;51.86;38727.00;5082928;28;20021;-68
2023/07/02 03:24:38;;;;;;;7.28;6.43;;;;;;;-145.63;51.79;38734.81;5072839;28;20024;-67
2023/07/02 03:27:04;;;;;;;10.38;6.63;;;;;;;-145.63;51.89;38734.81;5072997;28;20152;-67
2023/07/02 03:29:29;;;;;;;10.98;6.30;;;;;;;-145.63;51.75;38699.63;5082069;28;20044;-69
2023/07/02 03:31:55;;;;;;;8.88;6.28;;;;;;;-145.63;51.84;38760.25;5065686;28;20088;-69
2023/07/02 03:34:22;;;;;;;7.82;6.50;;;;;;;-145.63;51.73;38727.00;5082792;28;20309;-68
2023/07/02 03:36:48;;;;;;;9.32;6.25;;;;;;;-145.63;51.49;38723.09;5069913;28;20102;-68
2023/07/02 03:39:13;;;;;;;9.13;7.68;;;;;;;-145.63;51.72;38752.44;5074235;28;20028;-68
2023/07/02 03:41:39;;;;;;;9.32;7.25;;;;;;;-145.63;51.63;38754.38;5073144;28;20344;-68
2023/07/02 03:44:04;;;;;;;9.40;7.13;;;;;;;-145.63;51.60;38725.06;5084388;28;20025;-69
2023/07/02 03:46:31;;;;;;;10.35;7.25;;;;;;;-145.63;51.99;38764.16;5065099;28;20352;-69
2023/07/02 03:48:56;;;;;;;7.55;6.82;;;;;;;-145.63;51.87;38766.13;5079755;28;20028;-69
2023/07/02 03:51:22;;;;;;;8.38;6.93;;;;;;;-145.63;52.15;38773.94;5073615;28;20032;-68
2023/07/02 03:53:48;;;;;;;7.80;6.93;;;;;;;-145.63;52.47;38777.84;5070624;28;20044;-69
2023/07/02 03:56:13;;;;;;;11.43;7.13;;;;;;;-145.63;51.89;38762.22;5083965;28;20080;-68
2023/07/02 03:58:42;;;;;;;7.35;6.75;;;;;;;-145.63;52.05;38785.66;5063753;28;20217;-68
2023/07/02 04:01:08;;;;;;;9.00;7.00;;;;;;;-145.63;52.25;38775.91;5081258;28;20047;-69
2023/07/02 04:03:34;;;;;;;7.63;6.68;;;;;;;-145.63;52.19;38754.38;5072775;28;20318;-68
2023/07/02 04:05:59;;;;;;;11.20;7.18;;;;;;;-145.63;52.14;38758.28;5071405;28;20043;-69
2023/07/02 04:08:27;;;;;;;7.90;7.10;;;;;;;-145.63;52.35;38815.00;5082395;28;20281;-69
2023/07/02 04:10:54;;;;;;;8.93;6.65;;;;;;;-145.63;52.61;38832.59;5064285;28;20047;-69
2023/07/02 04:13:19;;;;;;;7.82;7.03;;;;;;;-145.63;52.46;38789.59;5082307;28;20066;-68
2023/07/02 04:15:45;;;;;;;11.10;7.00;;;;;;;-145.63;52.17;38775.91;5071020;28;20253;-69
2023/07/02 04:18:11;;;;;;;9.98;6.65;;;;;;;-145.63;51.84;38771.97;5072819;28;20038;-67
2023/07/02 04:20:39;;;;;;;7.32;6.63;;;;;;;-145.63;52.19;38770.03;5079326;28;20028;-67
2023/07/02 04:23:05;;;;;;;8.27;6.90;;;;;;;-145.63;51.97;38750.47;5063905;28;20111;-68
2023/07/02 04:25:31;;;;;;;8.00;6.35;;;;;;;-145.63;51.57;38738.75;5069922;28;20040;-68
2023/07/02 04:27:58;;;;;;;8.00;6.55;;;;;;;-145.63;50.93;38738.75;5079119;28;20275;-68
2023/07/02 04:30:24;;;;;;;9.25;6.07;;;;;;;-145.63;51.23;38744.59;5074614;28;20032;-67
2023/07/02 04:32:51;;;;;;;7.03;6.40;;;;;;;-145.63;51.02;38752.44;5069356;28;20100;-68
2023/07/02 04:35:16;;;;;;;7.22;6.50;;;;;;;-145.63;50.62;38730.91;5083357;28;20024;-67
2023/07/02 04:37:42;;;;;;;7.35;6.68;;;;;;;-145.63;50.87;38689.84;5064010;28;20082;-68
2023/07/02 04:40:11;;;;;;;7.28;6.15;;;;;;;-145.63;51.07;38740.69;5076069;28;20039;-68
2023/07/02 04:42:41;;;;;;;9.30;6.28;;;;;;;-145.63;50.61;38699.63;5063570;28;20033;-67
2023/07/02 04:45:08;;;;;;;8.50;5.80;;;;;;;-145.63;50.72;38703.53;5069972;28;20036;-68
2023/07/02 04:47:34;;;;;;;6.93;6.22;;;;;;;-145.63;50.07;38635.09;5080854;28;20040;-66
2023/07/02 04:50:00;;;;;;;9.10;6.05;;;;;;;-145.63;49.65;38637.06;5063696;28;20091;-68
2023/07/02 04:52:26;;;;;;;7.35;5.75;;;;;;;-145.63;49.46;38617.50;5082360;28;20032;-68
2023/07/02 04:54:51;;;;;;;10.50;5.93;;;;;;;-145.63;49.42;38617.50;5068773;28;20024;-67
2023/07/02 04:57:17;;;;;;;21.70;18.00;;;;;;;-145.63;48.83;38586.22;5063509;28;20024;-68
2023/07/02 04:59:43;;;;;;;6.72;6.05;;;;;;;-145.63;48.45;38558.84;5063748;28;20373;-68
2023/07/02 05:02:09;;;;;;;8.38;6.45;;;;;;;-145.63;48.43;38570.56;5063665;28;20031;-67
2023/07/02 05:04:37;;;;;;;7.28;5.78;;;;;;;-145.63;47.80;38547.09;5062459;28;20063;-68
2023/07/02 05:07:03;;;;;;;6.38;5.72;;;;;;;-145.63;47.84;38558.84;5063357;28;20051;-67
2023/07/02 05:09:29;;;;;;;7.90;5.80;;;;;;;-145.63;47.72;38488.44;5073871;28;20036;-66
2023/07/02 05:11:54;;;;;;;7.05;5.65;;;;;;;-145.63;47.45;38531.47;5077936;28;20028;-70
2023/07/02 05:14:20;;;;;;;7.28;6.47;;;;;;;-145.63;47.10;38537.34;5064408;28;20032;-68
2023/07/02 05:16:45;;;;;;;7.38;6.35;;;;;;;-145.63;47.15;38531.47;5082450;28;20025;-68
2023/07/02 05:19:11;;;;;;;9.02;6.55;;;;;;;-145.63;46.72;38545.16;5067075;28;20048;-70
2023/07/02 05:21:36;;;;;;;9.02;6.13;;;;;;;-145.63;46.43;38496.28;5074789;28;20032;-69
2023/07/02 05:24:02;;;;;;;7.78;6.10;;;;;;;-145.63;46.23;38468.91;5076501;28;20062;-68
2023/07/02 05:26:27;;;;;;;9.30;6.15;;;;;;;-145.63;46.35;38464.97;5065053;28;20025;-68
2023/07/02 05:28:53;;;;;;;6.25;5.50;;;;;;;-145.63;46.14;38414.16;5083424;28;20040;-69
2023/07/02 05:31:19;;;;;;;8.13;5.97;;;;;;;-145.63;46.00;38455.22;5065039;28;20028;-69
2023/07/02 05:33:45;;;;;;;7.45;5.47;;;;;;;-145.63;45.76;38420.00;5075467;28;20062;-69
2023/07/02 05:36:10;;;;;;;7.15;5.57;;;;;;;-145.63;46.05;38488.44;5075485;28;20025;-69
2023/07/02 05:38:36;;;;;;;6.72;5.60;;;;;;;-145.63;45.94;38421.97;5065983;28;20028;-69
2023/07/02 05:41:04;;;;;;;6.68;5.55;;;;;;;-145.63;45.89;38433.69;5072020;28;20348;-69
2023/07/02 05:43:29;;;;;;;11.73;6.22;;;;;;;-145.63;46.00;38455.22;5082048;28;20056;-69
2023/07/02 05:46:00;;;;;;;7.47;5.90;;;;;;;-145.63;45.20;38423.91;5069504;28;20028;-69
2023/07/02 05:48:26;;;;;;;6.40;5.57;;;;;;;-145.63;45.34;38378.94;5072865;28;20043;-68
2023/07/02 05:50:51;;;;;;;7.53;6.60;;;;;;;-145.63;44.68;38285.09;5078392;28;20047;-69
2023/07/02 05:53:17;;;;;;;8.15;5.90;;;;;;;-145.63;44.91;38414.16;5063418;28;20021;-68
2023/07/02 05:55:43;;;;;;;8.63;6.45;;;;;;;-145.63;45.10;38359.41;5082702;28;20039;-69
2023/07/02 05:58:08;;;;;;;7.93;5.53;;;;;;;-145.63;43.80;38392.63;5067860;28;20064;-69
2023/07/02 06:00:34;;;;;;;7.55;5.32;;;;;;;-145.63;44.08;38361.34;5074034;28;20033;-70
2023/07/02 06:03:00;;;;;;;7.47;5.60;;;;;;;-145.63;44.59;38341.81;5076855;28;20101;-69
2023/07/02 06:05:26;;;;;;;7.65;5.80;;;;;;;-145.63;44.59;38359.41;5064144;28;20325;-69
2023/07/02 06:07:51;;;;;;;8.18;5.43;;;;;;;-145.63;44.18;38349.63;5086789;28;20205;-71
2023/07/02 06:10:17;;;;;;;7.97;5.53;;;;;;;-145.63;44.63;38361.34;5070744;28;20078;-69
2023/07/02 06:12:43;;;;;;;6.18;5.50;;;;;;;-145.63;44.25;38351.56;5078812;28;20025;-69
2023/07/02 06:15:09;;;;;;;7.93;6.20;;;;;;;-145.63;43.84;38365.25;5080229;28;20461;-69
2023/07/02 06:17:35;;;;;;;10.32;6.00;;;;;;;-145.63;43.70;38320.28;5069249;28;20336;-70
2023/07/02 06:20:05;;;;;;;9.20;5.95;;;;;;;-145.63;43.26;38367.22;5086850;28;20032;-68
2023/07/02 06:22:31;;;;;;;8.10;5.47;;;;;;;-145.63;42.56;38312.47;5068588;28;20320;-68
2023/07/02 06:24:56;;;;;;;7.32;5.32;;;;;;;-145.63;41.90;38351.56;5066403;28;20029;-69
2023/07/02 06:27:22;;;;;;;8.43;5.22;;;;;;;-145.63;41.69;38300.75;5075389;28;20062;-68
2023/07/02 06:29:48;;;;;;;10.07;4.95;;;;;;;-145.63;42.60;38314.44;5076590;28;20287;-69
2023/07/02 06:32:13;;;;;;;7.85;5.55;;;;;;;-145.63;42.51;38269.47;5086879;28;20051;-68
2023/07/02 06:34:39;;;;;;;8.52;5.22;;;;;;;-145.63;42.78;38218.63;5066899;28;20044;-68
2023/07/02 06:37:05;;;;;;;8.00;5.82;;;;;;;-145.63;41.65;38236.22;5080926;28;20051;-68
2023/07/02 06:39:30;;;;;;;8.77;5.10;;;;;;;-145.63;41.26;38292.91;5076409;28;20079;-69
2023/07/02 06:41:56;;;;;;;5.70;5.10;;;;;;;-145.63;41.65;38290.97;5065262;28;20029;-69
2023/07/02 06:44:22;;;;;;;7.82;6.43;;;;;;;-145.63;42.10;38222.53;5065376;28;20374;-70
2023/07/02 06:46:47;;;;;;;5.97;5.07;;;;;;;-145.63;40.64;38187.34;5085504;28;20047;-70
2023/07/02 06:49:13;;;;;;;6.63;5.22;;;;;;;-145.63;40.89;38214.72;5071268;28;20025;-70
2023/07/02 06:51:38;;;;;;;7.78;5.07;;;;;;;-145.63;40.64;38206.88;5077011;28;20112;-69
2023/07/02 06:54:05;;;;;;;11.43;5.15;;;;;;;-145.63;40.25;38183.44;5079941;28;20025;-68
2023/07/02 06:56:32;;;;;;;9.30;6.05;;;;;;;-145.63;40.23;38210.81;5066443;28;20032;-69
2023/07/02 06:58:58;;;;;;;8.05;5.10;;;;;;;-145.63;40.45;38212.75;5065858;28;20021;-69
2023/07/02 07:01:23;;;;;;;8.18;5.22;;;;;;;-145.63;39.94;38163.88;5082917;28;20024;-66
2023/07/02 07:03:49;;;;;;;8.27;5.10;;;;;;;-145.63;39.35;38189.28;5073798;28;20048;-66
2023/07/02 07:06:15;;;;;;;8.45;5.00;;;;;;;-145.63;39.02;38206.88;5073499;28;20025;-68
2023/07/02 07:08:40;;;;;;;8.23;5.15;;;;;;;-145.63;39.45;38132.59;5083296;28;20217;-68
2023/07/02 07:11:06;;;;;;;6.30;5.38;;;;;;;-145.63;39.39;38081.75;5065638;28;20248;-68
2023/07/02 07:13:31;;;;;;;7.20;4.80;;;;;;;-145.63;38.22;38105.22;5083833;28;20351;-67
2023/07/02 07:15:57;;;;;;;7.78;6.43;;;;;;;-145.63;37.83;38089.56;5072486;28;20025;-68
2023/07/02 07:18:23;;;;;;;7.63;4.70;;;;;;;-145.63;38.37;38050.47;5064770;28;20193;-67
2023/07/02 07:20:48;;;;;;;6.88;4.88;;;;;;;-145.63;37.82;38025.06;5065509;28;20033;-67
2023/07/02 07:23:15;;;;;;;6.50;5.75;;;;;;;-145.63;37.27;38136.50;5065426;28;20052;-68
2023/07/02 07:25:41;;;;;;;6.60;5.50;;;;;;;-145.63;38.20;37985.97;5069400;28;20031;-67
2023/07/02 07:28:06;;;;;;;7.60;5.15;;;;;;;-145.63;37.97;38038.75;5079757;28;20028;-67
2023/07/02 07:30:32;;;;;;;6.95;5.22;;;;;;;-145.63;38.19;38120.88;5075753;28;20047;-67
2023/07/02 07:32:57;;;;;;;8.23;5.13;;;;;;;-145.63;38.66;38132.59;5069864;28;20029;-70
2023/07/02 07:35:23;;;;;;;8.20;5.53;;;;;;;-145.63;38.86;38116.94;5085030;28;20021;-67
2023/07/02 07:37:49;;;;;;;6.15;5.30;;;;;;;-145.63;39.25;38152.16;5065573;28;20033;-68
2023/07/02 07:40:14;;;;;;;5.88;5.22;;;;;;;-145.63;39.08;38091.53;5075761;28;20045;-68
2023/07/02 07:42:42;;;;;;;8.20;5.72;;;;;;;-145.63;38.28;38113.03;5074872;28;20035;-69
2023/07/02 07:45:10;;;;;;;8.05;5.55;;;;;;;-145.63;38.67;38077.84;5078969;28;20068;-68
2023/07/02 07:47:35;;;;;;;7.70;5.53;;;;;;;-145.63;38.81;38038.75;5066774;28;20112;-67
2023/07/02 07:50:01;;;;;;;7.32;5.53;;;;;;;-145.63;38.61;38009.41;5083755;28;20031;-66
2023/07/02 07:52:27;;;;;;;6.47;5.85;;;;;;;-145.63;37.43;38034.84;5068279;28;20032;-67
2023/07/02 07:54:52;;;;;;;6.50;5.07;;;;;;;-145.63;37.25;37950.75;5076924;28;20036;-68
2023/07/02 07:57:18;;;;;;;6.88;5.50;;;;;;;-145.63;36.95;38032.88;5077281;28;20170;-68
2023/07/02 07:59:43;;;;;;;7.88;5.03;;;;;;;-145.63;37.54;37960.53;5067488;28;20035;-67
2023/07/02 08:02:09;;;;;;;5.88;4.82;;;;;;;-145.63;36.78;37989.88;5084707;28;20027;-68
2023/07/02 08:04:34;;;;;;;5.85;4.93;;;;;;;-145.63;36.24;37987.91;5067012;28;20043;-67
2023/07/02 08:07:00;;;;;;;8.05;5.20;;;;;;;-145.63;35.98;37968.38;5077585;28;20028;-69
2023/07/02 08:09:25;;;;;;;7.40;5.10;;;;;;;-145.63;35.89;37956.63;5076061;28;20037;-67
2023/07/02 08:11:51;;;;;;;10.85;5.43;;;;;;;-145.63;36.46;37929.25;5068255;28;20024;-69
2023/07/02 08:14:18;;;;;;;8.57;4.95;;;;;;;-145.63;36.52;37929.25;5084532;28;20021;-68
2023/07/02 08:16:44;;;;;;;8.82;5.13;;;;;;;-145.63;36.46;37956.63;5064502;28;20064;-66
2023/07/02 08:19:10;;;;;;;7.10;4.97;;;;;;;-145.63;35.49;37935.13;5078727;28;20043;-67
2023/07/02 08:21:36;;;;;;;9.65;6.35;;;;;;;-145.63;35.35;37907.75;5074968;28;20031;-67
2023/07/02 08:24:02;;;;;;;7.50;4.93;;;;;;;-145.63;35.70;37956.63;5067670;28;20293;-69
2023/07/02 08:26:28;;;;;;;6.43;5.60;;;;;;;-145.63;35.81;37976.19;5064526;28;20024;-69
2023/07/02 08:28:53;;;;;;;10.77;5.80;;;;;;;-145.63;35.42;37948.81;5083866;28;20034;-64
2023/07/02 08:31:19;;;;;;;6.28;5.18;;;;;;;-145.63;34.53;37968.38;5068433;28;20035;-64
2023/07/02 08:33:44;;;;;;;10.02;5.47;;;;;;;-145.63;34.70;37921.44;5063890;28;20202;-64
2023/07/02 08:36:10;;;;;;;11.15;5.30;;;;;;;-145.63;35.10;37941.00;5069844;28;20028;-64
2023/07/02 08:38:36;;;;;;;12.52;5.85;;;;;;;-145.63;34.29;37899.94;5082852;28;20054;-64
2023/07/02 08:41:02;;;;;;;8.20;5.07;;;;;;;-145.63;34.59;37882.34;5063968;28;20094;-65
2023/07/02 08:43:29;;;;;;;16.23;5.60;;;;;;;-145.63;33.25;37899.94;5063719;28;20029;-64
2023/07/02 08:45:54;;;;;;;8.73;4.72;;;;;;;-145.63;33.41;37835.41;5063802;28;20115;-66
2023/07/02 08:48:23;;;;;;;7.05;4.95;;;;;;;-145.63;33.22;37880.38;5063594;28;20310;-63
2023/07/02 08:50:49;;;;;;;8.18;4.30;;;;;;;-145.63;32.68;37811.97;5066474;28;20044;-64
2023/07/02 08:53:15;;;;;;;6.38;4.82;;;;;;;-145.63;33.63;37804.13;5083848;28;20055;-63
2023/07/02 08:55:41;;;;;;;11.15;4.72;;;;;;;-145.63;33.32;37770.91;5065401;28;20229;-64
2023/07/02 08:58:07;;;;;;;6.07;4.43;;;;;;;-145.63;33.11;37725.94;5077128;28;20024;-64
2023/07/02 09:00:36;;;;;;;6.68;4.75;;;;;;;-145.63;33.01;37753.31;5074891;28;20033;-64
2023/07/02 09:03:17;;;;;;;37.13;28.88;;;;;;;-145.63;33.29;37704.44;5063500;28;20079;-64
2023/07/02 09:05:51;;;;;;;12.93;5.68;;;;;;;-145.63;33.21;37745.50;5063552;28;20039;-65
2023/07/02 09:08:27;;;;;;;6.88;5.32;;;;;;;-145.63;32.36;37673.16;5063650;28;20056;-64
2023/07/02 09:10:54;;;;;;;6.03;4.40;;;;;;;-145.63;32.98;37636.00;5064196;28;20037;-66
2023/07/02 09:13:20;;;;;;;6.88;5.30;;;;;;;-145.63;33.21;37682.94;5064067;28;20084;-65
2023/07/02 09:15:45;;;;;;;7.15;4.72;;;;;;;-145.63;30.50;37757.22;5074147;28;20366;-68
2023/07/02 09:18:18;;;;;;;7.70;4.70;;;;;;;-145.63;29.70;37923.41;5077777;28;20032;-64
2023/07/02 09:20:44;;;;;;;8.55;4.82;;;;;;;-145.63;30.18;37921.44;5063415;28;20035;-65
2023/07/02 09:23:10;;;;;;;8.10;4.85;;;;;;;-145.63;29.89;37886.25;5063167;28;20036;-65
2023/07/02 09:25:40;;;;;;;6.90;4.53;;;;;;;-145.63;29.37;37878.44;5066011;28;20032;-66
2023/07/02 09:28:19;;;;;;;8.02;4.72;;;;;;;-145.63;28.94;37903.84;5063002;28;20031;-65
2023/07/02 09:30:51;;;;;;;7.03;4.28;;;;;;;-145.63;30.30;37802.19;5073662;28;20063;-67
2023/07/02 09:33:17;;;;;;;6.70;4.68;;;;;;;-145.63;30.03;37808.06;5076852;28;20352;-66
2023/07/02 09:35:43;;;;;;;8.82;4.93;;;;;;;-145.63;30.37;37747.44;5064991;28;20048;-65
2023/07/02 09:38:09;;;;;;;9.85;4.95;;;;;;;-145.63;30.18;37745.50;5083259;28;20357;-65
2023/07/02 09:40:43;;;;;;;8.40;5.35;;;;;;;-145.63;29.89;37862.78;5065214;28;20021;-65
2023/07/02 09:43:09;;;;;;;9.00;4.68;;;;;;;-145.63;29.95;37847.16;5063156;28;20044;-66
2023/07/02 09:45:35;;;;;;;6.90;4.72;;;;;;;-145.63;29.17;38021.16;5071522;28;20077;-66
2023/07/02 09:48:02;;;;;;;9.38;5.03;;;;;;;-145.63;30.65;37984.00;5079022;28;20056;-67
2023/07/02 09:50:28;;;;;;;8.10;5.05;;;;;;;-145.63;29.55;37995.72;5062030;28;20025;-66
2023/07/02 09:52:54;;;;;;;6.72;5.50;;;;;;;-145.63;30.59;38027.00;5082527;28;20092;-66
2023/07/02 09:55:21;;;;;;;6.35;5.10;;;;;;;-145.63;30.68;38056.34;5067083;28;20348;-66
2023/07/02 09:57:46;;;;;;;7.63;5.15;;;;;;;-145.63;30.38;37933.16;5073293;28;20032;-65
2023/07/02 10:00:14;;;;;;;7.60;5.00;;;;;;;-145.63;30.88;37927.31;5077361;28;20025;-65
2023/07/02 10:02:39;;;;;;;7.00;4.55;;;;;;;-145.63;30.69;37862.78;5061833;28;20243;-65
2023/07/02 10:05:05;;;;;;;7.45;5.18;;;;;;;-145.63;30.54;37897.97;5062680;28;20033;-65
2023/07/02 10:07:34;;;;;;;10.40;5.65;;;;;;;-145.63;29.58;37937.09;5062564;28;20029;-67
2023/07/02 10:10:01;;;;;;;7.95;4.60;;;;;;;-145.63;30.50;37901.88;5074799;28;20040;-67
2023/07/02 10:12:28;;;;;;;31.42;22.85;;;;;;;-145.63;29.91;37808.06;5075771;28;20313;-66
2023/07/02 10:14:56;;;;;;;9.35;5.22;;;;;;;-145.63;29.89;37839.31;5062662;28;20041;-65
2023/07/02 10:17:30;;;;;;;12.20;5.82;;;;;;;-145.63;29.33;37870.59;5061343;28;20052;-65
2023/07/02 10:19:58;;;;;;;10.15;4.80;;;;;;;-145.63;29.63;37804.13;5062643;28;20028;-66
2023/07/02 10:22:24;;;;;;;6.82;4.85;;;;;;;-145.63;29.27;37741.56;5077906;28;20062;-66
2023/07/02 10:25:03;;;;;;;7.35;5.07;;;;;;;-145.63;28.79;37698.56;5072287;28;20017;-64
2023/07/02 10:27:36;;;;;;;9.63;4.70;;;;;;;-145.63;30.59;37653.59;5070055;28;20025;-65
2023/07/02 10:30:04;;;;;;;6.38;4.53;;;;;;;-145.63;29.86;37684.88;5077579;28;20217;-66
2023/07/02 10:32:30;;;;;;;6.13;4.60;;;;;;;-145.63;29.84;37671.19;5062546;28;20063;-66
2023/07/02 10:34:58;;;;;;;7.55;4.75;;;;;;;-145.63;28.79;37669.25;5062759;28;20044;-66
2023/07/02 10:37:24;;;;;;;7.15;5.13;;;;;;;-145.63;27.92;37634.06;5062458;28;20027;-66
2023/07/02 10:39:51;;;;;;;9.13;5.15;;;;;;;-145.63;27.71;37725.94;5071448;28;20080;-66
2023/07/02 10:42:17;;;;;;;7.55;5.07;;;;;;;-145.63;29.37;37788.50;5068089;28;20313;-67
2023/07/02 10:45:01;;;;;;;8.10;4.68;;;;;;;-145.63;28.82;37833.47;5081551;28;20028;-65
2023/07/02 10:47:28;;;;;;;6.60;4.70;;;;;;;-145.63;29.10;37794.38;5062580;28;20029;-65
2023/07/02 10:49:53;;;;;;;10.15;6.28;;;;;;;-145.63;29.35;37851.06;5080078;28;20072;-66
2023/07/02 10:52:19;;;;;;;5.88;5.15;;;;;;;-145.63;29.33;37815.88;5069490;28;20056;-66
2023/07/02 10:54:48;;;;;;;7.20;5.35;;;;;;;-145.63;29.93;37792.41;5086041;28;20031;-67
2023/07/02 10:57:20;;;;;;;5.40;4.55;;;;;;;-145.63;29.16;37776.78;5080689;28;20040;-65
2023/07/02 10:59:46;;;;;;;11.65;5.10;;;;;;;-145.63;28.80;37843.25;5067392;28;20025;-65
2023/07/02 11:02:11;;;;;;;9.27;4.30;;;;;;;-145.63;28.41;37776.78;5084819;28;20198;-64
2023/07/02 11:04:37;;;;;;;6.95;4.50;;;;;;;-145.63;26.17;37649.69;5068288;28;20025;-65
2023/07/02 11:07:04;;;;;;;6.32;4.22;;;;;;;-145.63;27.06;37839.31;5077636;28;20020;-66
2023/07/02 11:09:29;;;;;;;8.55;4.85;;;;;;;-145.63;27.53;37849.09;5078567;28;20049;-65
2023/07/02 11:11:57;;;;;;;6.40;4.32;;;;;;;-145.63;28.22;37831.50;5066919;28;20075;-66